Time;durP1;ratioP1;P1;durP2;ratioP2;P2;SDS_P1;SDS_P2;PMS_P1;PMS_P2;Temp;Humidity;BMP_temperature;BMP_pressure;BME280_temperature;BME280_humidity;BME280_pressure;Samples;Min_cycle;Max_cycle;Signal;HPM_P1;HPM_P2
2021/03/27 00:00:41;;;;;;;39.17;22.75;;;8.90;64.20;;;;;;5032545;28;20025;-79
2021/03/27 00:03:19;;;;;;;41.28;22.30;;;8.90;64.40;;;;;;5039749;28;20426;-79
2021/03/27 00:05:57;;;;;;;37.60;21.98;;;8.90;64.50;;;;;;5032156;28;20053;-80
2021/03/27 00:08:45;;;;;;;38.40;21.58;;;8.90;64.60;;;;;;5048719;28;20030;-78
2021/03/27 00:11:36;;;;;;;37.25;20.92;;;8.90;64.70;;;;;;5031792;28;20043;-79
2021/03/27 00:14:12;;;;;;;44.00;22.65;;;8.90;64.90;;;;;;5012837;28;20476;-78
2021/03/27 00:16:38;;;;;;;37.83;22.25;;;8.80;65.10;;;;;;5031544;28;20416;-78
2021/03/27 00:19:07;;;;;;;37.08;21.17;;;8.80;65.20;;;;;;5032837;28;20056;-80
2021/03/27 00:21:42;;;;;;;34.90;21.33;;;8.80;65.40;;;;;;5043018;28;20033;-78
2021/03/27 00:24:17;;;;;;;39.53;22.63;;;8.80;65.60;;;;;;5033275;28;20056;-78
2021/03/27 00:27:01;;;;;;;39.03;22.95;;;8.80;65.60;;;;;;5020515;28;20375;-79
2021/03/27 00:29:41;;;;;;;38.03;21.60;;;8.70;65.70;;;;;;5031572;28;20468;-79
2021/03/27 00:32:13;;;;;;;41.72;23.83;;;8.70;66.00;;;;;;5031389;28;20021;-78
2021/03/27 00:34:42;;;;;;;41.28;22.63;;;8.70;66.20;;;;;;5031743;28;20116;-78
2021/03/27 00:37:13;;;;;;;39.13;22.77;;;8.70;66.30;;;;;;5031491;28;20081;-79
2021/03/27 00:39:55;;;;;;;45.72;22.92;;;8.60;66.60;;;;;;5032548;28;20510;-77
2021/03/27 00:42:37;;;;;;;43.17;23.95;;;8.60;66.90;;;;;;5045565;28;20022;-77
2021/03/27 00:45:12;;;;;;;38.30;21.33;;;8.60;67.00;;;;;;5034802;28;20456;-79
2021/03/27 00:47:39;;;;;;;42.25;23.38;;;8.60;67.00;;;;;;5031549;28;20021;-78
2021/03/27 00:50:34;;;;;;;38.92;22.58;;;8.60;67.10;;;;;;5025484;28;20044;-78
2021/03/27 00:53:31;;;;;;;40.42;22.15;;;8.60;67.20;;;;;;5022946;28;20091;-78
2021/03/27 00:56:12;;;;;;;39.95;22.52;;;8.60;67.50;;;;;;5021851;28;20030;-78
2021/03/27 00:58:48;;;;;;;38.22;22.27;;;8.60;67.60;;;;;;5030756;28;20021;-79
2021/03/27 01:01:16;;;;;;;39.35;22.15;;;8.60;68.10;;;;;;5035847;28;20031;-79
2021/03/27 01:03:57;;;;;;;43.08;22.52;;;8.60;68.00;;;;;;5051589;28;20075;-79
2021/03/27 01:06:37;;;;;;;39.75;21.98;;;8.60;68.20;;;;;;5037675;28;20029;-79
2021/03/27 01:09:05;;;;;;;40.03;22.17;;;8.60;68.30;;;;;;5032943;28;20025;-80
2021/03/27 01:11:43;;;;;;;39.10;21.35;;;8.50;68.20;;;;;;5041222;28;20116;-79
2021/03/27 01:14:17;;;;;;;40.63;22.13;;;8.60;68.40;;;;;;5031615;28;20466;-80
2021/03/27 01:16:52;;;;;;;38.75;20.38;;;8.60;68.40;;;;;;5037395;28;20025;-79
2021/03/27 01:19:21;;;;;;;;;;;8.60;68.40;;;;;;5024240;28;20026;-79
2021/03/27 01:21:48;;;;;;;41.72;21.20;;;8.60;67.90;;;;;;5049595;28;20390;-79
2021/03/27 01:24:16;;;;;;;35.08;20.98;;;8.60;68.00;;;;;;5034367;28;20021;-79
2021/03/27 01:27:25;;;;;;;40.72;21.85;;;8.60;68.10;;;;;;5033326;28;20033;-79
2021/03/27 01:29:59;;;;;;;38.60;22.38;;;8.60;68.30;;;;;;5021668;28;20403;-79
2021/03/27 01:32:46;;;;;;;40.40;22.90;;;8.60;68.20;;;;;;5035606;28;20025;-79
2021/03/27 01:35:41;;;;;;;39.83;22.63;;;8.50;68.40;;;;;;5039240;28;20025;-81
2021/03/27 01:38:20;;;;;;;40.13;23.02;;;8.50;68.50;;;;;;5060303;28;20057;-79
2021/03/27 01:41:11;;;;;;;39.10;22.00;;;8.50;68.50;;;;;;5055843;28;20037;-78
2021/03/27 01:43:51;;;;;;;39.45;23.17;;;8.50;68.50;;;;;;5043437;28;20026;-79
2021/03/27 01:46:56;;;;;;;46.15;23.50;;;8.40;68.60;;;;;;5038346;28;20068;-79
2021/03/27 01:49:43;;;;;;;43.65;23.10;;;8.40;68.80;;;;;;5037142;28;20128;-79
2021/03/27 01:52:33;;;;;;;41.90;22.27;;;8.40;68.80;;;;;;5033348;28;20029;-82
2021/03/27 01:55:18;;;;;;;37.60;22.70;;;8.40;68.80;;;;;;5032398;28;20032;-74
2021/03/27 01:58:19;;;;;;;43.10;23.67;;;8.40;68.90;;;;;;5049836;28;20095;-74
2021/03/27 02:01:11;;;;;;;40.17;22.83;;;8.40;69.00;;;;;;5020523;28;20049;-74
2021/03/27 02:04:11;;;;;;;40.95;24.08;;;8.30;68.90;;;;;;5022264;28;20022;-84
2021/03/27 02:06:42;;;;;;;41.63;23.02;;;8.30;68.90;;;;;;5033167;28;20030;-83
2021/03/27 02:09:23;;;;;;;44.53;23.67;;;8.30;69.00;;;;;;5049831;28;20079;-83
2021/03/27 02:12:03;;;;;;;42.50;23.95;;;8.30;69.10;;;;;;5040514;28;20025;-78
2021/03/27 02:14:40;;;;;;;40.60;23.58;;;8.30;69.20;;;;;;5032799;28;20033;-78
2021/03/27 02:17:29;;;;;;;41.72;24.63;;;8.30;69.30;;;;;;5034679;28;20431;-78
2021/03/27 02:20:16;;;;;;;42.20;23.45;;;8.30;69.30;;;;;;5042272;28;20067;-78
2021/03/27 02:22:55;;;;;;;45.25;24.08;;;8.30;70.00;;;;;;5041852;28;20119;-81
2021/03/27 02:25:39;;;;;;;46.15;23.55;;;8.30;69.40;;;;;;5024468;28;20035;-78
2021/03/27 02:28:04;;;;;;;46.35;23.45;;;8.30;69.40;;;;;;5020744;28;20021;-78
2021/03/27 02:30:36;;;;;;;43.20;23.30;;;8.40;69.40;;;;;;5025489;28;20056;-78
2021/03/27 02:33:32;;;;;;;42.63;23.85;;;8.40;69.40;;;;;;5040821;28;20102;-78
2021/03/27 02:36:08;;;;;;;48.60;23.85;;;8.30;69.30;;;;;;5032775;28;20030;-78
2021/03/27 02:38:55;;;;;;;40.13;22.25;;;8.40;69.30;;;;;;5048753;28;20049;-78
2021/03/27 02:41:35;;;;;;;43.22;24.25;;;8.40;69.20;;;;;;5028294;28;20029;-78
2021/03/27 02:44:27;;;;;;;39.60;24.02;;;8.40;69.40;;;;;;5028638;28;20126;-77
2021/03/27 02:47:16;;;;;;;44.65;23.80;;;8.40;69.30;;;;;;5022741;28;20080;-78
2021/03/27 02:50:03;;;;;;;42.40;23.73;;;8.40;69.90;;;;;;5008263;28;20337;-78
2021/03/27 02:52:50;;;;;;;41.85;23.95;;;8.40;69.40;;;;;;5030979;28;20407;-77
2021/03/27 02:55:29;;;;;;;41.85;23.92;;;8.40;69.30;;;;;;5028384;28;20029;-78
2021/03/27 02:57:55;;;;;;;42.42;23.83;;;8.40;69.40;;;;;;5032897;28;20022;-77
2021/03/27 03:00:35;;;;;;;42.38;24.13;;;8.30;69.30;;;;;;5025339;28;20036;-77
2021/03/27 03:03:23;;;;;;;41.08;23.98;;;8.30;69.50;;;;;;5020396;28;20026;-78
2021/03/27 03:05:54;;;;;;;43.88;24.60;;;8.30;69.70;;;;;;5031111;28;20076;-78
2021/03/27 03:08:23;;;;;;;41.83;23.65;;;8.30;69.80;;;;;;5027723;28;20030;-79
2021/03/27 03:11:03;;;;;;;46.60;24.65;;;8.30;69.80;;;;;;5031227;28;20472;-78
2021/03/27 03:14:07;;;;;;;41.45;24.30;;;8.20;69.70;;;;;;5023587;28;20025;-78
2021/03/27 03:16:51;;;;;;;41.22;23.02;;;8.30;69.80;;;;;;5029535;28;20037;-78
2021/03/27 03:19:28;;;;;;;41.92;23.35;;;8.20;69.70;;;;;;5028733;28;20115;-78
2021/03/27 03:22:17;;;;;;;42.28;23.73;;;8.20;69.70;;;;;;5026684;28;20037;-78
2021/03/27 03:24:49;;;;;;;43.53;24.50;;;8.20;69.60;;;;;;5038169;28;20030;-77
2021/03/27 03:27:37;;;;;;;45.45;24.50;;;8.20;69.70;;;;;;5041034;28;20022;-78
2021/03/27 03:30:45;;;;;;;39.97;23.02;;;8.20;69.80;;;;;;5034497;28;20029;-78
2021/03/27 03:33:27;;;;;;;43.65;23.80;;;8.20;69.90;;;;;;5043747;28;20037;-78
2021/03/27 03:36:01;;;;;;;38.17;22.83;;;8.20;70.60;;;;;;5053605;28;20029;-78
2021/03/27 03:38:48;;;;;;;44.58;24.42;;;8.20;70.00;;;;;;5038284;28;20133;-77
2021/03/27 03:41:13;;;;;;;39.13;22.55;;;8.20;70.00;;;;;;5038718;28;20030;-78
2021/03/27 03:44:08;;;;;;;45.42;23.20;;;8.20;69.90;;;;;;5038641;28;20032;-77
2021/03/27 03:47:18;;;;;;;41.22;22.15;;;8.20;69.80;;;;;;5011736;28;20042;-77
2021/03/27 03:49:58;;;;;;;41.10;22.98;;;8.20;70.00;;;;;;5016421;28;20498;-78
2021/03/27 03:52:48;;;;;;;46.03;23.05;;;8.20;70.00;;;;;;5042390;28;20176;-78
2021/03/27 03:55:40;;;;;;;42.90;23.23;;;8.20;70.00;;;;;;5025500;28;20152;-76
2021/03/27 03:58:31;;;;;;;43.60;23.90;;;8.20;70.10;;;;;;5020787;28;20104;-72
2021/03/27 04:01:05;;;;;;;37.60;22.35;;;8.20;70.10;;;;;;5020397;28;20468;-73
2021/03/27 04:03:56;;;;;;;40.05;22.80;;;8.20;70.00;;;;;;5034095;28;20030;-72
2021/03/27 04:06:25;;;;;;;39.70;22.90;;;8.20;70.00;;;;;;5027307;28;20034;-73
2021/03/27 04:09:19;;;;;;;37.72;22.55;;;8.30;70.00;;;;;;5027060;28;20073;-72
2021/03/27 04:11:53;;;;;;;44.63;24.30;;;8.20;70.00;;;;;;5015982;28;20033;-72
2021/03/27 04:14:46;;;;;;;43.30;24.17;;;8.20;70.00;;;;;;5028491;28;20065;-71
2021/03/27 04:17:14;;;;;;;39.70;22.70;;;8.20;70.10;;;;;;5018330;28;20120;-74
2021/03/27 04:20:02;;;;;;;43.13;23.73;;;8.20;70.10;;;;;;5035419;28;20014;-72
2021/03/27 04:22:35;;;;;;;41.63;23.35;;;8.30;70.20;;;;;;5019905;28;20025;-71
2021/03/27 04:25:34;;;;;;;46.25;24.13;;;8.30;70.20;;;;;;5025966;28;20485;-73
2021/03/27 04:28:20;;;;;;;43.75;23.88;;;8.30;70.10;;;;;;5033950;28;20030;-71
2021/03/27 04:31:07;;;;;;;44.38;24.60;;;8.40;70.10;;;;;;5024910;28;20083;-72
2021/03/27 04:34:08;;;;;;;41.28;23.65;;;8.40;70.10;;;;;;5019875;28;20113;-72
2021/03/27 04:37:24;;;;;;;40.88;23.80;;;8.40;70.00;;;;;;5021615;28;20075;-72
2021/03/27 04:40:14;;;;;;;44.30;24.30;;;8.50;70.00;;;;;;5018235;28;20038;-72
2021/03/27 04:43:04;;;;;;;44.00;24.98;;;8.60;70.00;;;;;;5037115;28;20448;-73
2021/03/27 04:45:49;;;;;;;40.03;22.75;;;8.80;70.00;;;;;;5034878;28;20054;-74
2021/03/27 04:48:44;;;;;;;46.05;24.80;;;9.00;69.70;;;;;;5037180;28;20161;-72
2021/03/27 04:51:19;;;;;;;41.30;23.73;;;9.20;69.70;;;;;;5017592;28;20107;-73
2021/03/27 04:54:12;;;;;;;37.85;22.85;;;9.30;69.10;;;;;;5042010;28;20022;-72
2021/03/27 04:56:56;;;;;;;38.92;23.45;;;9.50;68.80;;;;;;5041189;28;20064;-74
2021/03/27 04:59:49;;;;;;;44.42;23.60;;;9.80;68.90;;;;;;5047577;28;20022;-73
2021/03/27 05:02:20;;;;;;;42.70;24.00;;;10.00;68.00;;;;;;5043957;28;20064;-72
2021/03/27 05:05:28;;;;;;;38.92;23.27;;;10.20;67.30;;;;;;5029361;28;20018;-72
2021/03/27 05:07:58;;;;;;;39.95;22.77;;;10.40;67.00;;;;;;5040540;28;20200;-72
2021/03/27 05:10:46;;;;;;;37.95;22.92;;;10.80;67.10;;;;;;5027853;28;20041;-72
2021/03/27 05:13:24;;;;;;;41.40;23.92;;;11.10;66.00;;;;;;5047001;28;20040;-72
2021/03/27 05:16:05;;;;;;;41.08;21.95;;;11.50;65.40;;;;;;5051161;28;20009;-83
2021/03/27 05:18:59;;;;;;;35.92;22.42;;;11.80;64.70;;;;;;5056305;28;20021;-80
2021/03/27 05:21:36;;;;;;;38.72;22.42;;;12.30;63.90;;;;;;5063173;28;20038;-80
2021/03/27 05:24:11;;;;;;;36.22;21.48;;;12.70;62.90;;;;;;5029860;28;20443;-81
2021/03/27 05:27:06;;;;;;;33.38;22.08;;;13.20;62.50;;;;;;5056165;28;20034;-79
2021/03/27 05:29:32;;;;;;;37.47;22.42;;;13.90;61.40;;;;;;5037498;28;20026;-80
2021/03/27 05:32:20;;;;;;;37.42;22.63;;;14.30;59.80;;;;;;5033414;28;20483;-80
2021/03/27 05:34:54;;;;;;;36.08;23.50;;;14.90;58.30;;;;;;5040106;28;20054;-73
2021/03/27 05:37:28;;;;;;;37.70;22.67;;;15.30;56.60;;;;;;5016726;28;20133;-74
2021/03/27 05:40:01;;;;;;;37.25;23.77;;;15.70;56.00;;;;;;5018200;28;20063;-74
2021/03/27 05:42:48;;;;;;;35.95;23.52;;;16.00;54.80;;;;;;5031431;28;20064;-76
2021/03/27 05:45:14;;;;;;;37.15;23.60;;;16.30;54.00;;;;;;5035306;28;20032;-73
2021/03/27 05:48:08;;;;;;;37.22;22.70;;;16.60;52.90;;;;;;5017026;28;20377;-73
2021/03/27 05:50:58;;;;;;;34.17;22.13;;;17.00;52.30;;;;;;5039044;28;20136;-72
2021/03/27 05:53:30;;;;;;;31.50;21.77;;;17.30;51.00;;;;;;5032620;28;20036;-72
2021/03/27 05:56:14;;;;;;;35.00;23.08;;;17.60;50.50;;;;;;5022891;28;20021;-74
2021/03/27 05:59:21;;;;;;;35.05;23.65;;;17.80;49.30;;;;;;5029777;28;20026;-73
2021/03/27 06:02:04;;;;;;;38.20;22.90;;;18.00;48.90;;;;;;5036334;28;20487;-73
2021/03/27 06:04:32;;;;;;;32.85;22.08;;;18.20;48.30;;;;;;5031798;28;20068;-73
2021/03/27 06:07:35;;;;;;;33.97;22.45;;;18.40;47.90;;;;;;5025968;28;20025;-73
2021/03/27 06:10:21;;;;;;;34.42;21.63;;;18.60;46.70;;;;;;5029316;28;20044;-73
2021/03/27 06:12:55;;;;;;;32.33;22.38;;;18.80;46.70;;;;;;5031027;28;20033;-73
2021/03/27 06:15:59;;;;;;;34.03;21.85;;;19.10;46.10;;;;;;5019621;28;20030;-74
2021/03/27 06:18:46;;;;;;;33.67;22.48;;;19.30;45.30;;;;;;5015237;28;20400;-74
2021/03/27 06:21:29;;;;;;;30.85;21.90;;;19.60;44.80;;;;;;5021410;28;20044;-73
2021/03/27 06:24:16;;;;;;;31.85;22.33;;;19.60;44.20;;;;;;5035274;28;20018;-74
2021/03/27 06:26:53;;;;;;;33.78;23.15;;;19.70;43.80;;;;;;5029994;28;20056;-73
2021/03/27 06:29:50;;;;;;;33.97;22.20;;;19.80;43.40;;;;;;5033696;28;20084;-74
2021/03/27 06:32:43;;;;;;;33.67;22.27;;;20.00;44.20;;;;;;5034389;28;20113;-74
2021/03/27 06:35:11;;;;;;;30.77;22.08;;;20.20;43.30;;;;;;5033864;28;20037;-74
2021/03/27 06:37:53;;;;;;;32.45;22.50;;;20.40;43.00;;;;;;5019828;28;20081;-71
2021/03/27 06:40:50;;;;;;;32.92;23.17;;;20.90;42.30;;;;;;5037803;28;20034;-74
2021/03/27 06:43:24;;;;;;;32.38;22.67;;;21.10;41.80;;;;;;5036230;28;20043;-73
2021/03/27 06:46:10;;;;;;;31.73;22.88;;;21.30;41.40;;;;;;5022527;28;20022;-74
2021/03/27 06:49:01;;;;;;;32.55;22.40;;;21.70;41.10;;;;;;5025977;28;20121;-76
2021/03/27 06:51:44;;;;;;;34.00;24.20;;;21.80;40.50;;;;;;5043326;28;20120;-75
2021/03/27 06:54:38;;;;;;;32.03;24.00;;;21.90;40.00;;;;;;5024455;28;20080;-77
2021/03/27 06:57:09;;;;;;;32.33;23.33;;;22.00;40.20;;;;;;5035990;28;20108;-77
2021/03/27 07:00:19;;;;;;;36.03;23.27;;;22.30;40.00;;;;;;5026406;28;20559;-76
2021/03/27 07:03:13;;;;;;;32.95;22.98;;;22.60;40.10;;;;;;5026647;28;20056;-76
2021/03/27 07:06:14;;;;;;;32.03;22.80;;;22.80;38.90;;;;;;5035648;28;20071;-78
2021/03/27 07:09:24;;;;;;;30.35;21.73;;;23.20;38.80;;;;;;5003944;28;20048;-76
2021/03/27 07:12:02;;;;;;;30.33;22.27;;;23.40;38.30;;;;;;5029899;28;20037;-75
2021/03/27 07:15:09;;;;;;;35.13;21.95;;;23.50;37.70;;;;;;5034685;28;20022;-77
2021/03/27 07:17:47;;;;;;;31.08;21.80;;;23.30;37.50;;;;;;5033902;28;20094;-75
2021/03/27 07:20:55;;;;;;;32.15;22.13;;;23.40;37.80;;;;;;5033626;28;20031;-76
2021/03/27 07:23:33;;;;;;;28.58;21.60;;;23.50;37.30;;;;;;5023867;28;20083;-79
2021/03/27 07:26:11;;;;;;;30.40;21.58;;;23.40;37.20;;;;;;5044140;28;20022;-76
2021/03/27 07:29:01;;;;;;;31.77;22.65;;;23.50;37.00;;;;;;5041156;28;20064;-76
2021/03/27 07:31:47;;;;;;;31.00;21.75;;;23.40;37.00;;;;;;5019061;28;20038;-76
2021/03/27 07:34:24;;;;;;;27.98;20.73;;;23.50;37.00;;;;;;5033770;28;20108;-77
2021/03/27 07:37:27;;;;;;;27.23;20.52;;;23.60;36.70;;;;;;5033584;28;20056;-74
2021/03/27 07:40:14;;;;;;;26.58;19.90;;;23.50;36.90;;;;;;5028016;28;20044;-74
2021/03/27 07:42:58;;;;;;;28.55;20.00;;;23.40;36.70;;;;;;5029635;28;20026;-74
2021/03/27 07:45:48;;;;;;;29.77;20.05;;;23.60;36.90;;;;;;5027051;28;20076;-75
2021/03/27 07:48:29;;;;;;;31.10;19.85;;;24.00;36.50;;;;;;5023787;28;20037;-75
2021/03/27 07:51:22;;;;;;;24.33;18.42;;;24.30;36.10;;;;;;5040106;28;20065;-76
2021/03/27 07:54:15;;;;;;;24.85;18.77;;;24.50;35.50;;;;;;5028779;28;20025;-76
2021/03/27 07:56:49;;;;;;;23.10;18.08;;;24.60;35.70;;;;;;5042033;28;20030;-75
2021/03/27 07:59:24;;;;;;;23.15;17.85;;;24.50;35.30;;;;;;5019104;28;20431;-76
2021/03/27 08:01:56;;;;;;;;;;;24.60;36.00;;;;;;5039304;28;20380;-76
2021/03/27 08:04:52;;;;;;;24.67;17.13;;;24.60;36.10;;;;;;5027962;28;19912;-76
2021/03/27 08:07:30;;;;;;;25.00;16.80;;;24.60;35.50;;;;;;5045254;28;20366;-76
2021/03/27 08:10:15;;;;;;;25.30;18.00;;;25.00;35.10;;;;;;5027135;28;20496;-77
2021/03/27 08:13:21;;;;;;;21.05;16.35;;;25.20;34.70;;;;;;5038190;28;20541;-70
2021/03/27 08:15:55;;;;;;;19.77;15.00;;;25.40;34.10;;;;;;5015582;28;20496;-74
2021/03/27 08:18:40;;;;;;;23.42;16.52;;;25.40;33.80;;;;;;5027138;28;20029;-76
2021/03/27 08:21:44;;;;;;;21.17;14.68;;;25.30;33.60;;;;;;5030983;28;20451;-76
2021/03/27 08:24:37;;;;;;;19.65;15.02;;;25.20;33.70;;;;;;5017974;28;20080;-75
2021/03/27 08:27:24;;;;;;;21.83;14.27;;;25.50;33.70;;;;;;5042105;28;20029;-76
2021/03/27 08:30:17;;;;;;;22.95;15.40;;;25.50;33.30;;;;;;5028491;28;20479;-75
2021/03/27 08:33:02;;;;;;;22.80;15.70;;;25.50;33.30;;;;;;5039710;28;20051;-75
2021/03/27 08:36:04;;;;;;;21.52;15.00;;;25.70;33.30;;;;;;5020190;28;20025;-76
2021/03/27 08:38:33;;;;;;;19.27;13.35;;;25.90;33.00;;;;;;5046077;28;20045;-75
2021/03/27 08:41:26;;;;;;;19.98;13.40;;;26.00;33.10;;;;;;5036542;28;20030;-76
2021/03/27 08:44:13;;;;;;;21.42;14.75;;;26.00;32.60;;;;;;5044699;28;20033;-75
2021/03/27 08:47:00;;;;;;;20.00;14.20;;;26.10;32.80;;;;;;5045763;28;20029;-75
2021/03/27 08:50:03;;;;;;;18.45;14.48;;;26.00;32.20;;;;;;5030274;28;20046;-74
2021/03/27 08:52:56;;;;;;;18.58;13.15;;;25.90;32.50;;;;;;5031746;28;20076;-74
2021/03/27 08:55:28;;;;;;;18.02;12.63;;;26.00;32.10;;;;;;5033700;28;20029;-76
2021/03/27 08:58:09;;;;;;;22.33;13.75;;;26.00;31.90;;;;;;5049034;28;20117;-74
2021/03/27 09:00:49;;;;;;;19.45;13.10;;;25.70;31.80;;;;;;5053569;28;20029;-74
2021/03/27 09:03:21;;;;;;;16.67;11.73;;;25.70;32.10;;;;;;5048882;28;20035;-74
2021/03/27 09:06:20;;;;;;;21.50;13.07;;;25.80;31.80;;;;;;5027529;28;20022;-73
2021/03/27 09:09:11;;;;;;;17.23;12.65;;;25.70;31.90;;;;;;5027879;28;20384;-74
2021/03/27 09:11:49;;;;;;;17.13;13.10;;;25.60;31.60;;;;;;5016828;28;20510;-73
2021/03/27 09:14:14;;;;;;;18.95;13.30;;;25.60;31.70;;;;;;5030817;28;20037;-80
2021/03/27 09:16:50;;;;;;;17.77;13.13;;;25.80;31.90;;;;;;5030780;28;20029;-81
2021/03/27 09:19:35;;;;;;;17.05;12.85;;;25.70;31.70;;;;;;5031459;28;20132;-81
2021/03/27 09:22:31;;;;;;;16.05;12.02;;;25.80;31.60;;;;;;5032156;28;20061;-68
2021/03/27 09:25:19;;;;;;;18.85;13.60;;;25.90;31.40;;;;;;5023610;28;20441;-77
2021/03/27 09:28:00;;;;;;;15.50;11.95;;;26.00;31.00;;;;;;5021869;28;20030;-77
2021/03/27 09:30:32;;;;;;;18.35;12.45;;;26.20;30.80;;;;;;5032562;28;20038;-76
2021/03/27 09:33:32;;;;;;;18.55;13.35;;;26.00;30.50;;;;;;5018063;28;20036;-76
2021/03/27 09:36:28;;;;;;;16.17;12.18;;;25.80;30.90;;;;;;5019501;28;20088;-76
2021/03/27 09:39:00;;;;;;;;;;;25.70;31.20;;;;;;5020759;28;20488;-79
2021/03/27 09:41:44;;;;;;;16.17;12.55;;;25.90;31.80;;;;;;5033831;28;20291;-76
2021/03/27 09:44:47;;;;;;;16.67;12.70;;;26.10;31.20;;;;;;5038530;28;20494;-77
2021/03/27 09:47:38;;;;;;;21.25;12.40;;;26.20;31.40;;;;;;5037191;28;20276;-76
2021/03/27 09:50:27;;;;;;;16.50;11.48;;;26.30;30.90;;;;;;5037352;28;20033;-75
2021/03/27 09:53:17;;;;;;;18.85;12.00;;;25.70;30.20;;;;;;5024260;28;20037;-77
2021/03/27 09:56:04;;;;;;;19.35;12.60;;;24.90;30.60;;;;;;5024239;28;20169;-76
2021/03/27 09:59:05;;;;;;;18.88;12.90;;;24.20;31.10;;;;;;5030091;28;20112;-76
2021/03/27 10:01:50;;;;;;;16.65;12.20;;;23.70;31.90;;;;;;5042364;28;20075;-70
2021/03/27 10:04:54;;;;;;;18.52;12.95;;;23.80;32.40;;;;;;5044720;28;20091;-70
2021/03/27 10:07:38;;;;;;;23.58;13.43;;;23.40;32.20;;;;;;5025032;28;20033;-70
2021/03/27 10:10:34;;;;;;;19.08;13.48;;;22.70;32.80;;;;;;5043757;28;20452;-69
2021/03/27 10:13:17;;;;;;;18.73;12.27;;;21.80;33.40;;;;;;5027120;28;20032;-70
2021/03/27 10:15:51;;;;;;;18.50;12.35;;;21.00;34.60;;;;;;5021821;28;20101;-70
2021/03/27 10:18:45;;;;;;;21.10;14.32;;;20.40;35.00;;;;;;5028486;28;20026;-69
2021/03/27 10:21:40;;;;;;;20.60;13.20;;;19.80;35.60;;;;;;5022659;28;20026;-65
2021/03/27 10:24:11;;;;;;;21.88;14.35;;;19.50;36.40;;;;;;5021548;28;20057;-66
2021/03/27 10:26:49;;;;;;;20.23;12.55;;;19.10;36.80;;;;;;5038795;28;20030;-67
2021/03/27 10:29:38;;;;;;;29.52;13.90;;;19.00;37.10;;;;;;5039017;28;20381;-70
2021/03/27 10:32:31;;;;;;;21.33;13.00;;;19.00;37.40;;;;;;5040481;28;20036;-68
2021/03/27 10:35:06;;;;;;;24.73;12.38;;;18.90;37.90;;;;;;5042100;28;20116;-72
2021/03/27 10:37:38;;;;;;;17.88;12.18;;;19.10;37.80;;;;;;5036703;28;20053;-71
2021/03/27 10:40:41;;;;;;;17.05;11.32;;;20.00;37.60;;;;;;5038016;28;20033;-68
2021/03/27 10:43:41;;;;;;;19.58;10.75;;;20.70;36.50;;;;;;5034382;28;20030;-70
2021/03/27 10:46:26;;;;;;;18.48;11.55;;;21.10;35.00;;;;;;5015691;28;20451;-69
2021/03/27 10:49:09;;;;;;;19.20;12.07;;;20.80;34.70;;;;;;5046086;28;20080;-69
2021/03/27 10:51:54;;;;;;;18.02;10.82;;;20.60;35.10;;;;;;5026718;28;20080;-69
2021/03/27 10:54:36;;;;;;;15.88;10.52;;;20.20;34.80;;;;;;5042332;28;20526;-69
2021/03/27 10:57:38;;;;;;;17.77;11.27;;;19.80;35.40;;;;;;5038347;28;20045;-70
2021/03/27 11:00:16;;;;;;;17.10;10.38;;;20.70;35.80;;;;;;5028612;28;20034;-68
2021/03/27 11:03:14;;;;;;;16.90;10.75;;;21.70;35.20;;;;;;5021060;28;20400;-69
2021/03/27 11:05:56;;;;;;;16.73;9.63;;;21.50;33.80;;;;;;5038051;28;20060;-67
2021/03/27 11:08:51;;;;;;;15.48;10.60;;;21.10;34.00;;;;;;5024103;28;20034;-67
2021/03/27 11:11:19;;;;;;;18.35;11.68;;;20.60;34.00;;;;;;5026791;28;20092;-67
2021/03/27 11:14:33;;;;;;;19.58;11.90;;;20.20;34.60;;;;;;5027408;28;20037;-67
2021/03/27 11:17:32;;;;;;;22.90;12.60;;;19.70;35.00;;;;;;4991873;28;20240;-67
2021/03/27 11:20:13;;;;;;;18.20;11.93;;;19.40;35.70;;;;;;5006898;28;20526;-68
2021/03/27 11:22:57;;;;;;;21.27;12.85;;;19.00;36.20;;;;;;5011176;28;20050;-68
2021/03/27 11:25:34;;;;;;;22.95;13.52;;;18.80;36.60;;;;;;5020852;28;20113;-67
2021/03/27 11:28:28;;;;;;;23.17;13.50;;;18.70;36.80;;;;;;5018036;28;20036;-67
2021/03/27 11:31:16;;;;;;;23.40;13.80;;;18.40;36.80;;;;;;5023159;28;20561;-74
2021/03/27 11:33:53;;;;;;;19.58;12.45;;;18.10;37.20;;;;;;5037513;28;20100;-68
2021/03/27 11:36:49;;;;;;;20.23;12.57;;;17.90;37.40;;;;;;5024887;28;20053;-67
2021/03/27 11:39:24;;;;;;;23.65;12.70;;;17.70;38.00;;;;;;5028030;28;20136;-67
2021/03/27 11:41:52;;;;;;;20.92;12.05;;;17.60;38.00;;;;;;5029603;28;20037;-67
2021/03/27 11:45:07;;;;;;;17.38;10.80;;;17.50;37.80;;;;;;5020227;28;20030;-68
2021/03/27 11:47:45;;;;;;;20.55;11.52;;;17.50;37.80;;;;;;5009196;28;20034;-68
2021/03/27 11:50:33;;;;;;;19.98;11.98;;;17.50;37.70;;;;;;5027349;28;20045;-68
2021/03/27 11:53:10;;;;;;;19.10;11.68;;;17.60;37.60;;;;;;5021758;28;20510;-68
2021/03/27 11:55:48;;;;;;;21.05;12.40;;;17.60;37.10;;;;;;5032703;28;20025;-68
2021/03/27 11:58:34;;;;;;;21.30;12.77;;;17.50;37.00;;;;;;5031301;28;20068;-67
2021/03/27 12:01:08;;;;;;;20.88;12.85;;;17.20;37.00;;;;;;5030140;28;20031;-68
2021/03/27 12:03:42;;;;;;;20.52;11.98;;;17.10;37.20;;;;;;5040520;28;20030;-68
2021/03/27 12:06:50;;;;;;;21.37;12.17;;;17.00;37.50;;;;;;5031199;28;20443;-68
2021/03/27 12:09:25;;;;;;;19.33;11.82;;;16.90;37.40;;;;;;5043668;28;20026;-68
2021/03/27 12:12:09;;;;;;;21.77;12.48;;;16.80;37.40;;;;;;5017156;28;20167;-67
2021/03/27 12:15:02;;;;;;;20.35;12.05;;;16.70;37.40;;;;;;5037519;28;20030;-67
2021/03/27 12:17:36;;;;;;;20.58;11.68;;;16.60;37.70;;;;;;5026987;28;20029;-67
2021/03/27 12:20:26;;;;;;;22.30;13.02;;;16.70;37.80;;;;;;5023150;28;20029;-68
2021/03/27 12:23:24;;;;;;;20.85;13.00;;;16.60;37.90;;;;;;5015232;28;20077;-68
2021/03/27 12:26:10;;;;;;;23.55;13.90;;;16.70;38.20;;;;;;5028268;28;20048;-67
2021/03/27 12:29:09;;;;;;;22.63;13.27;;;16.80;38.20;;;;;;5016127;28;20045;-66
2021/03/27 12:31:53;;;;;;;21.48;13.10;;;16.90;38.20;;;;;;5033061;28;20037;-67
2021/03/27 12:34:43;;;;;;;22.83;13.77;;;16.80;38.40;;;;;;5018740;28;20069;-68
2021/03/27 12:37:34;;;;;;;20.80;12.57;;;16.80;38.50;;;;;;5019849;28;20060;-68
2021/03/27 12:40:27;;;;;;;23.00;13.80;;;16.70;38.80;;;;;;5031095;28;20384;-68
2021/03/27 12:43:29;;;;;;;25.02;14.43;;;16.70;38.90;;;;;;5031556;28;20033;-73
2021/03/27 12:46:13;;;;;;;24.58;14.32;;;16.60;39.10;;;;;;5019137;28;20435;-68
2021/03/27 12:48:46;;;;;;;25.25;14.70;;;16.50;39.30;;;;;;5019549;28;20036;-68
2021/03/27 12:51:54;;;;;;;24.83;15.27;;;16.50;39.80;;;;;;5035915;28;20034;-67
2021/03/27 12:54:35;;;;;;;26.67;15.10;;;16.40;39.80;;;;;;5019679;28;20057;-68
2021/03/27 12:57:09;;;;;;;26.30;15.75;;;16.30;39.90;;;;;;5029690;28;20095;-71
2021/03/27 13:00:06;;;;;;;24.65;15.10;;;16.20;40.00;;;;;;5021698;28;20108;-67
2021/03/27 13:02:37;;;;;;;;;;;16.10;40.30;;;;;;5023218;28;20037;-68
2021/03/27 13:05:36;;;;;;;29.80;15.98;;;16.00;40.00;;;;;;5017206;28;19929;-68
2021/03/27 13:08:16;;;;;;;26.33;15.43;;;15.90;40.50;;;;;;5032593;28;20045;-68
2021/03/27 13:10:56;;;;;;;26.73;15.57;;;15.80;40.90;;;;;;5019225;28;20045;-67
2021/03/27 13:13:53;;;;;;;27.98;17.52;;;15.80;41.60;;;;;;5032964;28;20026;-67
2021/03/27 13:16:24;;;;;;;29.73;16.85;;;15.90;41.50;;;;;;5036540;28;20373;-67
2021/03/27 13:19:28;;;;;;;30.60;16.58;;;16.00;41.40;;;;;;5037731;28;20165;-72
2021/03/27 13:22:03;;;;;;;27.50;16.98;;;16.10;41.30;;;;;;5015939;28;20388;-68
2021/03/27 13:24:35;;;;;;;27.70;16.90;;;16.10;41.20;;;;;;5034008;28;20050;-68
2021/03/27 13:27:12;;;;;;;27.95;15.60;;;16.10;41.10;;;;;;5029635;28;20040;-72
2021/03/27 13:29:41;;;;;;;27.65;17.95;;;16.10;41.30;;;;;;5023861;28;20029;-68
2021/03/27 13:32:23;;;;;;;26.52;16.02;;;16.10;41.10;;;;;;5023492;28;20029;-67
2021/03/27 13:35:27;;;;;;;25.88;16.58;;;16.20;41.10;;;;;;5027659;28;20117;-70
2021/03/27 13:37:59;;;;;;;24.80;16.23;;;16.40;41.40;;;;;;5025538;28;20115;-67
2021/03/27 13:40:29;;;;;;;25.88;16.95;;;16.60;40.80;;;;;;5027536;28;21530;-68
2021/03/27 13:43:04;;;;;;;30.02;17.15;;;16.60;40.60;;;;;;5029647;28;20021;-67
2021/03/27 13:45:54;;;;;;;25.75;15.95;;;16.60;40.50;;;;;;5026694;28;20029;-67
2021/03/27 13:48:28;;;;;;;25.38;16.90;;;16.60;40.40;;;;;;5024108;28;20049;-67
2021/03/27 13:51:03;;;;;;;26.67;16.10;;;16.60;40.10;;;;;;5040441;28;20030;-75
2021/03/27 13:53:43;;;;;;;26.95;16.65;;;16.50;40.10;;;;;;5020385;28;20449;-67
2021/03/27 13:56:24;;;;;;;27.77;16.80;;;16.40;40.20;;;;;;5034913;28;20080;-67
2021/03/27 13:59:08;;;;;;;25.52;16.05;;;16.40;40.10;;;;;;5021701;28;20442;-67